createdAt,value
2023-02-09T00:01:33.176Z,96985.28
2023-02-09T00:04:03.565Z,96983.06
2023-02-09T00:06:33.306Z,96988.53
2023-02-09T00:09:04.419Z,96990.53
2023-02-09T00:11:53.923Z,96996.59
2023-02-09T00:14:23.583Z,96987.81
2023-02-09T00:16:54.172Z,97000.97
2023-02-09T00:19:23.714Z,96998.16
2023-02-09T00:21:53.139Z,96994.09
2023-02-09T00:24:23.907Z,96991.84
2023-02-09T00:26:53.445Z,96995.72
2023-02-09T00:29:24.034Z,96990.16
2023-02-09T00:31:53.667Z,96989.69
2023-02-09T00:34:23.142Z,96984.81
2023-02-09T00:42:07.548Z,96971.50
2023-02-09T00:44:40.861Z,96974.09
2023-02-09T00:47:10.626Z,96971.00
2023-02-09T00:49:41.066Z,96975.63
2023-02-09T00:52:10.671Z,96975.72
2023-02-09T00:54:40.329Z,96975.28
2023-02-09T00:57:12.086Z,96973.59
2023-02-09T00:59:42.486Z,96971.94
2023-02-09T01:02:12.078Z,96972.78
2023-02-09T01:04:41.816Z,96969.13
2023-02-09T01:07:11.454Z,96968.03
2023-02-09T01:09:41.100Z,96971.25
2023-02-09T01:12:18.743Z,96968.41
2023-02-09T01:14:48.775Z,96969.94
2023-02-09T01:17:18.419Z,96971.84
2023-02-09T01:19:52.480Z,96967.06
2023-02-09T01:22:23.280Z,96971.94
2023-02-09T01:24:53.010Z,96968.22
2023-02-09T01:27:24.143Z,96974.72
2023-02-09T01:29:55.224Z,96967.97
2023-02-09T01:32:25.672Z,96964.31
2023-02-09T01:55:24.318Z,96945.22
2023-02-09T01:57:59.840Z,96941.06
2023-02-09T02:00:29.543Z,96942.72
2023-02-09T02:03:06.209Z,96942.50
2023-02-09T02:05:40.923Z,96940.84
2023-02-09T02:08:19.469Z,96943.66
2023-02-09T02:10:50.504Z,96935.97
2023-02-09T02:13:21.074Z,96942.22
2023-02-09T02:16:05.613Z,96940.94
2023-02-09T02:19:01.331Z,96947.66
2023-02-09T02:22:32.256Z,96942.25
2023-02-09T02:26:14.933Z,96944.97
2023-02-09T02:29:39.877Z,96937.63
2023-02-09T02:32:38.402Z,96941.50
2023-02-09T02:35:20.127Z,96934.97
2023-02-09T02:38:04.751Z,96940.28
2023-02-09T02:40:51.049Z,96940.41
2023-02-09T02:43:37.832Z,96937.06
2023-02-09T02:46:16.938Z,96933.53
2023-02-09T02:48:56.405Z,96930.09
2023-02-09T02:51:33.059Z,96924.06
2023-02-09T02:54:09.483Z,96928.22
2023-02-09T02:56:44.734Z,96922.66
2023-02-09T02:59:20.833Z,96924.94
2023-02-09T03:01:58.603Z,96918.69
2023-02-09T03:04:31.936Z,96926.38
2023-02-09T03:07:01.540Z,96927.56
2023-02-09T03:09:31.000Z,96941.31
2023-02-09T03:12:16.626Z,96938.09
2023-02-09T03:15:08.686Z,96939.34
2023-02-09T03:17:49.266Z,96939.78
2023-02-09T03:20:33.409Z,96935.84
2023-02-09T03:23:05.744Z,96937.16
2023-02-09T03:25:43.088Z,96938.09
2023-02-09T03:28:21.296Z,96926.94
2023-02-09T03:30:52.948Z,96921.84
2023-02-09T03:33:26.814Z,96929.66
2023-02-09T03:36:00.987Z,96927.06
2023-02-09T03:38:30.695Z,96929.56
2023-02-09T03:41:00.207Z,96926.13
2023-02-09T03:43:43.638Z,96930.50
2023-02-09T03:46:13.689Z,96925.38
2023-02-09T03:48:43.275Z,96930.50
2023-02-09T03:51:14.225Z,96932.16
2023-02-09T03:53:43.840Z,96933.09
2023-02-09T03:56:13.495Z,96924.78
2023-02-09T03:58:43.089Z,96929.25
2023-02-09T04:01:12.973Z,96927.81
2023-02-09T04:03:42.662Z,96927.91
2023-02-09T04:06:14.409Z,96927.19
2023-02-09T04:08:44.112Z,96927.19
2023-02-09T04:11:13.552Z,96923.88
2023-02-09T04:13:43.005Z,96925.63
2023-02-09T04:16:12.595Z,96930.00
2023-02-09T04:18:42.182Z,96926.47
2023-02-09T04:21:13.537Z,96926.47
2023-02-09T04:23:43.201Z,96927.41
2023-02-09T04:26:12.920Z,96923.97
2023-02-09T04:28:42.480Z,96925.06
2023-02-09T04:31:12.428Z,96923.38
2023-02-09T04:33:42.200Z,96922.78
2023-02-09T04:36:13.655Z,96925.38
2023-02-09T04:38:43.180Z,96922.09
2023-02-09T04:41:12.621Z,96927.88
2023-02-09T04:43:42.035Z,96936.63
2023-02-09T04:46:14.425Z,96925.63
2023-02-09T04:48:44.320Z,96935.91
2023-02-09T04:51:15.627Z,96936.03
2023-02-09T04:53:45.141Z,96943.00
2023-02-09T04:56:16.945Z,96936.25
2023-02-09T04:59:04.270Z,96949.06
2023-02-09T05:01:34.324Z,96938.22
2023-02-09T05:04:03.823Z,96949.59
2023-02-09T05:06:34.648Z,96947.91
2023-02-09T05:09:04.337Z,96938.34
2023-02-09T05:11:33.763Z,96946.75
2023-02-09T05:14:03.205Z,96951.31
2023-02-09T05:16:32.733Z,96944.38
2023-02-09T05:19:02.367Z,96943.72
2023-02-09T05:21:31.821Z,96951.22
2023-02-09T05:24:02.812Z,96944.13
2023-02-09T05:26:32.779Z,96949.69
2023-02-09T05:29:02.308Z,96947.81
2023-02-09T05:31:32.057Z,96952.72
2023-02-09T05:34:02.185Z,96956.75
2023-02-09T05:36:31.774Z,96959.25
2023-02-09T05:39:02.637Z,96970.28
2023-02-09T05:41:49.499Z,96961.63
2023-02-09T05:44:19.184Z,96955.91
2023-02-09T05:46:48.703Z,96948.94
2023-02-09T05:49:18.701Z,96959.25
2023-02-09T05:51:48.233Z,96952.38
2023-02-09T05:54:19.138Z,96960.09
2023-02-09T05:56:49.149Z,96962.69
2023-02-09T05:59:19.245Z,96961.84
2023-02-09T06:01:48.660Z,96961.03
2023-02-09T06:04:18.491Z,96969.69
2023-02-09T06:06:48.134Z,96965.28
2023-02-09T06:09:19.906Z,96966.22
2023-02-09T06:11:49.399Z,96965.41
2023-02-09T06:14:19.394Z,96980.94
2023-02-09T06:16:49.075Z,96967.19
2023-02-09T06:19:22.143Z,96968.72
2023-02-09T06:21:51.601Z,96975.50
2023-02-09T06:24:22.522Z,96974.66
2023-02-09T06:26:52.033Z,96985.09
2023-02-09T06:29:21.465Z,96986.66
2023-02-09T06:31:51.013Z,96984.97
2023-02-09T06:34:20.544Z,96984.75
2023-02-09T06:36:49.994Z,96986.22
2023-02-09T06:39:20.871Z,96992.00
2023-02-09T06:41:51.879Z,97000.66
2023-02-09T06:44:21.754Z,96991.06
2023-02-09T06:46:51.288Z,97004.81
2023-02-09T06:49:22.243Z,97005.66
2023-02-09T06:51:51.977Z,97008.13
2023-02-09T06:54:23.483Z,97013.25
2023-02-09T06:56:53.027Z,97000.81
2023-02-09T06:59:22.781Z,97010.81
2023-02-09T07:01:54.821Z,97017.59
2023-02-09T07:04:24.548Z,97019.13
2023-02-09T07:06:54.004Z,97022.47
2023-02-09T07:09:24.878Z,97029.81
2023-02-09T07:11:54.313Z,97028.75
2023-02-09T07:14:23.902Z,97033.88
2023-02-09T07:16:53.452Z,97031.25
2023-02-09T07:19:22.931Z,97038.88
2023-02-09T07:21:52.423Z,97034.16
2023-02-09T07:24:21.896Z,97033.81
2023-02-09T07:26:52.717Z,97018.78
2023-02-09T07:29:22.225Z,97028.84
2023-02-09T07:31:51.747Z,97029.34
2023-02-09T07:34:21.357Z,97025.44
2023-02-09T07:36:50.940Z,97019.56
2023-02-09T07:39:20.591Z,97018.72
2023-02-09T07:41:50.286Z,97024.00
2023-02-09T07:44:21.278Z,97013.91
2023-02-09T07:46:51.994Z,97024.00
2023-02-09T07:49:21.578Z,97012.38
2023-02-09T07:51:51.142Z,97014.72
2023-02-09T07:54:21.345Z,97011.03
2023-02-09T07:56:50.997Z,97019.22
2023-02-09T07:59:21.836Z,97001.25
2023-02-09T08:01:52.048Z,97012.69
2023-02-09T08:04:22.822Z,97016.81
2023-02-09T08:06:53.247Z,97016.88
2023-02-09T08:09:22.766Z,97016.22
2023-02-09T08:11:57.449Z,97019.47
2023-02-09T08:14:36.061Z,97019.81
2023-02-09T08:17:24.171Z,97022.00
2023-02-09T08:20:00.337Z,97019.44
2023-02-09T08:22:34.702Z,97010.53
2023-02-09T08:25:06.894Z,97014.19
2023-02-09T08:27:37.993Z,97023.34
2023-02-09T08:30:11.368Z,97025.72
2023-02-09T08:32:40.752Z,97021.06
2023-02-09T08:35:10.931Z,97022.78
2023-02-09T08:37:40.562Z,97019.88
2023-02-09T08:40:11.733Z,97025.41
2023-02-09T08:42:41.289Z,97025.03
2023-02-09T08:45:12.580Z,97016.31
2023-02-09T08:47:42.087Z,97014.13
2023-02-09T08:50:11.935Z,97019.63
2023-02-09T08:52:41.585Z,97027.78
2023-02-09T08:55:11.234Z,97017.50
2023-02-09T08:57:44.371Z,97020.81
2023-02-09T09:00:18.059Z,97013.69
2023-02-09T09:02:47.296Z,97006.91
2023-02-09T09:05:17.364Z,97012.97
2023-02-09T09:07:46.798Z,97006.03
2023-02-09T09:10:16.403Z,97005.41
2023-02-09T09:12:45.954Z,97009.94
2023-02-09T09:15:16.658Z,97007.38
2023-02-09T09:17:46.270Z,97007.75
2023-02-09T09:20:16.233Z,97012.16
2023-02-09T09:22:45.768Z,97010.59
2023-02-09T09:25:15.163Z,97006.00
2023-02-09T09:27:44.805Z,97005.63
2023-02-09T09:30:16.271Z,97012.41
2023-02-09T09:32:45.901Z,97014.22
2023-02-09T09:35:15.544Z,97013.13
2023-02-09T09:37:44.980Z,97019.94
2023-02-09T09:40:21.924Z,97024.53
2023-02-09T09:42:56.619Z,97020.44
2023-02-09T09:45:32.524Z,97021.34
2023-02-09T09:48:02.108Z,97025.69
2023-02-09T09:50:37.722Z,97027.38
2023-02-09T09:53:18.584Z,97029.78
2023-02-09T09:55:48.585Z,97023.59
2023-02-09T09:58:23.591Z,97028.41
2023-02-09T10:00:55.076Z,97023.81
2023-02-09T10:03:26.482Z,97029.47
2023-02-09T10:06:01.900Z,97033.56
2023-02-09T10:08:38.066Z,97031.44
2023-02-09T10:11:12.377Z,97023.06
2023-02-09T10:13:49.840Z,97029.31
2023-02-09T10:16:25.451Z,97024.88
2023-02-09T10:18:58.482Z,97029.03
2023-02-09T10:21:32.236Z,97026.94
2023-02-09T10:24:14.313Z,97021.19
2023-02-09T10:26:44.209Z,97018.06
2023-02-09T10:29:26.633Z,97013.78
2023-02-09T10:32:07.101Z,97014.78
2023-02-09T10:34:48.016Z,97016.28
2023-02-09T10:37:28.083Z,97009.84
2023-02-09T10:40:15.997Z,97007.16
2023-02-09T10:42:57.295Z,97006.84
2023-02-09T10:45:30.885Z,97000.88
2023-02-09T10:48:18.902Z,97004.50
2023-02-09T10:50:55.411Z,96993.38
2023-02-09T10:53:30.471Z,96995.53
2023-02-09T10:56:07.913Z,96985.94
2023-02-09T10:58:38.741Z,96987.44
2023-02-09T11:01:20.329Z,96980.91
2023-02-09T11:04:03.157Z,96981.38
2023-02-09T11:06:44.472Z,96976.91
2023-02-09T11:09:18.556Z,96971.75
2023-02-09T11:11:48.144Z,96969.94
2023-02-09T11:14:21.074Z,96973.34
2023-02-09T11:17:18.208Z,96973.50
2023-02-09T11:20:23.379Z,96969.19
2023-02-09T11:23:12.545Z,96966.69
2023-02-09T11:25:53.552Z,96960.47
2023-02-09T11:28:43.395Z,96963.03
2023-02-09T11:32:01.340Z,96951.91
2023-02-09T11:35:01.809Z,96953.22
2023-02-09T11:37:47.564Z,96952.44
2023-02-09T11:40:37.561Z,96957.31
2023-02-09T11:43:21.786Z,96955.94
2023-02-09T11:45:53.821Z,96954.78
2023-02-09T11:48:27.454Z,96954.97
2023-02-09T11:51:06.868Z,96942.97
2023-02-09T11:53:49.968Z,96944.56
2023-02-09T11:56:24.735Z,96941.50
2023-02-09T11:59:04.042Z,96934.66
2023-02-09T12:01:43.614Z,96935.75
2023-02-09T12:04:22.535Z,96930.34
2023-02-09T12:06:58.330Z,96927.72
2023-02-09T12:09:46.964Z,96929.78
2023-02-09T12:12:27.167Z,96926.47
2023-02-09T12:15:15.255Z,96920.72
2023-02-09T12:17:51.654Z,96917.88
2023-02-09T12:20:31.256Z,96919.97
2023-02-09T12:23:08.089Z,96911.16
2023-02-09T12:25:57.516Z,96908.03
2023-02-09T12:28:45.975Z,96914.69
2023-02-09T12:31:24.663Z,96909.00
2023-02-09T12:34:29.467Z,96905.41
2023-02-09T12:37:28.284Z,96906.41
2023-02-09T12:40:38.578Z,96911.16
2023-02-09T12:43:34.883Z,96905.84
2023-02-09T12:46:51.790Z,96902.84
2023-02-09T12:49:25.420Z,96895.84
2023-02-09T12:52:17.872Z,96886.03
2023-02-09T12:54:51.835Z,96890.00
2023-02-09T12:57:55.589Z,96894.38
2023-02-09T13:00:56.480Z,96893.72
2023-02-09T13:03:27.993Z,96891.81
2023-02-09T13:06:01.416Z,96886.59
2023-02-09T13:08:48.251Z,96888.34
2023-02-09T13:11:30.332Z,96882.94
2023-02-09T13:14:07.453Z,96886.56
2023-02-09T13:17:20.601Z,96897.91
2023-02-09T13:20:20.121Z,96885.47
2023-02-09T13:23:10.705Z,96887.84
2023-02-09T13:25:41.583Z,96881.16
2023-02-09T13:28:18.023Z,96887.97
2023-02-09T13:30:49.682Z,96884.97
2023-02-09T13:33:36.457Z,96875.63
2023-02-09T13:36:28.004Z,96872.56
2023-02-09T13:38:58.123Z,96882.41
2023-02-09T13:41:37.148Z,96880.38
2023-02-09T13:44:23.331Z,96886.53
2023-02-09T13:46:58.241Z,96884.56
2023-02-09T13:49:30.516Z,96885.56
2023-02-09T13:52:15.247Z,96893.38
2023-02-09T13:54:45.259Z,96891.09
2023-02-09T13:57:32.279Z,96887.88
2023-02-09T14:00:14.654Z,96890.94
2023-02-09T14:02:56.547Z,96887.69
2023-02-09T14:05:40.653Z,96893.06
2023-02-09T14:08:15.620Z,96896.75
2023-02-09T14:10:51.427Z,96882.91
2023-02-09T14:13:26.192Z,96880.19
2023-02-09T14:16:08.635Z,96887.06
2023-02-09T14:18:51.491Z,96885.25
2023-02-09T14:21:32.552Z,96881.00
2023-02-09T14:24:27.537Z,96887.34
2023-02-09T14:27:04.724Z,96886.56
2023-02-09T14:29:38.125Z,96892.34
2023-02-09T14:32:32.907Z,96889.91
2023-02-09T14:35:21.690Z,96897.00
2023-02-09T14:37:53.883Z,96884.66
2023-02-09T14:40:31.972Z,96891.56
2023-02-09T14:43:17.144Z,96887.38
2023-02-09T14:45:50.139Z,96889.16
2023-02-09T14:48:22.821Z,96894.38
2023-02-09T14:50:57.866Z,96888.75
2023-02-09T14:53:31.388Z,96881.47
2023-02-09T14:56:00.881Z,96887.31
2023-02-09T14:58:33.311Z,96880.38
2023-02-09T15:01:04.290Z,96879.41
2023-02-09T23:56:05.624Z,97244.34
2023-02-09T23:58:38.640Z,97247.00
